Observation data for Plains on 08/14/2020      Previous  Date  Next       Current Mesonet Observations  Soil Data  Daily Summary Page  Observations in Plain Language
KPPS 140500Z 16009KT 30/09 A3002 RMK A01 T02980087  RH  028%=      5-min Rain = 0
KPPS 140505Z 17011KT 30/09 A3002 RMK A01 T03000086  RH  027%=      5-min Rain = 0
KPPS 140510Z 18011KT 30/09 A3002 RMK A01 T02980087  RH  028%=      5-min Rain = 0
KPPS 140515Z 19011KT 30/09 A3002 RMK A01 T02990089  RH  028%=      5-min Rain = 0
KPPS 140520Z 19010KT 30/09 A3003 RMK A01 T02980090  RH  028%=      5-min Rain = 0
KPPS 140525Z 19010KT 29/09 A3003 RMK A01 T02940091  RH  029%=      5-min Rain = 0
KPPS 140530Z 19010KT 29/09 A3003 RMK A01 T02920092  RH  030%=      5-min Rain = 0
KPPS 140535Z 20010KT 29/09 A3003 RMK A01 T02900093  RH  030%=      5-min Rain = 0
KPPS 140540Z 20009KT 29/10 A3003 RMK A01 T02890095  RH  031%=      5-min Rain = 0
KPPS 140545Z 20008KT 29/10 A3003 RMK A01 T02860096  RH  031%=      5-min Rain = 0
KPPS 140550Z 21009KT 28/10 A3003 RMK A01 T02840097  RH  032%=      5-min Rain = 0
KPPS 140555Z 21008KT 28/10 A3003 RMK A01 T02830097  RH  032%=      5-min Rain = 0
KPPS 140600Z 21008KT 28/10 A3003 RMK A01 T02830099  RH  033%=      5-min Rain = 0
KPPS 140605Z 21007KT 28/10 A3003 RMK A01 T02820101  RH  033%=      5-min Rain = 0
KPPS 140610Z 21008KT 28/10 A3003 RMK A01 T02840102  RH  033%=      5-min Rain = 0
KPPS 140615Z 21007KT 29/10 A3003 RMK A01 T02850103  RH  033%=      5-min Rain = 0
KPPS 140620Z 21006KT 28/10 A3004 RMK A01 T02830103  RH  034%=      5-min Rain = 0
KPPS 140625Z 21006KT 28/10 A3004 RMK A01 T02820103  RH  034%=      5-min Rain = 0
KPPS 140630Z 22005KT 28/10 A3004 RMK A01 T02820104  RH  034%=      5-min Rain = 0
KPPS 140635Z 22005KT 28/10 A3004 RMK A01 T02810104  RH  034%=      5-min Rain = 0
KPPS 140640Z 23004KT 28/10 A3004 RMK A01 T02790104  RH  035%=      5-min Rain = 0
KPPS 140645Z 22005KT 28/10 A3004 RMK A01 T02790104  RH  035%=      5-min Rain = 0
KPPS 140650Z 22005KT 28/10 A3004 RMK A01 T02820103  RH  034%=      5-min Rain = 0
KPPS 140655Z 22005KT 28/10 A3004 RMK A01 T02830104  RH  034%=      5-min Rain = 0
KPPS 140700Z 23004KT 28/10 A3004 RMK A01 T02820104  RH  034%=      5-min Rain = 0
KPPS 140705Z 28003KT 28/11 A3005 RMK A01 T02790105  RH  035%=      5-min Rain = 0
KPPS 140710Z 29004KT 28/11 A3005 RMK A01 T02770106  RH  035%=      5-min Rain = 0
KPPS 140715Z 27004KT 28/11 A3005 RMK A01 T02780105  RH  035%=      5-min Rain = 0
KPPS 140720Z 23004KT 28/11 A3004 RMK A01 T02790105  RH  035%=      5-min Rain = 0
KPPS 140725Z 20005KT 28/11 A3004 RMK A01 T02810105  RH  035%=      5-min Rain = 0
KPPS 140730Z 19006KT 28/11 A3004 RMK A01 T02800105  RH  035%=      5-min Rain = 0
KPPS 140735Z 18006KT 28/10 A3004 RMK A01 T02790104  RH  035%=      5-min Rain = 0
KPPS 140740Z 17007KT 28/10 A3004 RMK A01 T02800104  RH  034%=      5-min Rain = 0
KPPS 140745Z 17007KT 28/10 A3004 RMK A01 T02790104  RH  035%=      5-min Rain = 0
KPPS 140750Z 18008KT 28/10 A3004 RMK A01 T02810103  RH  034%=      5-min Rain = 0
KPPS 140755Z 18008KT 28/10 A3004 RMK A01 T02810103  RH  034%=      5-min Rain = 0
KPPS 140800Z 19008KT 28/10 A3004 RMK A01 T02800103  RH  034%=      5-min Rain = 0
KPPS 140805Z 20007KT 28/10 A3004 RMK A01 T02800104  RH  034%=      5-min Rain = 0
KPPS 140810Z 21007KT 28/10 A3004 RMK A01 T02790104  RH  035%=      5-min Rain = 0
KPPS 140815Z 21007KT 28/10 A3004 RMK A01 T02780104  RH  035%=      5-min Rain = 0
KPPS 140820Z 22006KT 28/10 A3004 RMK A01 T02750104  RH  035%=      5-min Rain = 0
KPPS 140825Z 24008KT 27/11 A3005 RMK A01 T02740105  RH  036%=      5-min Rain = 0
KPPS 140830Z 26006KT 27/11 A3005 RMK A01 T02670107  RH  038%=      5-min Rain = 0
KPPS 140835Z 28007KT 26/11 A3005 RMK A01 T02620108  RH  039%=      5-min Rain = 0
KPPS 140840Z 28006KT 26/11 A3005 RMK A01 T02600108  RH  040%=      5-min Rain = 0
KPPS 140845Z 27005KT 26/11 A3005 RMK A01 T02590108  RH  040%=      5-min Rain = 0
KPPS 140850Z 27005KT 26/11 A3005 RMK A01 T02570107  RH  040%=      5-min Rain = 0
KPPS 140855Z 28006KT 26/11 A3005 RMK A01 T02550107  RH  041%=      5-min Rain = 0
KPPS 140900Z 28005KT 25/11 A3005 RMK A01 T02540107  RH  041%=      5-min Rain = 0
KPPS 140905Z 28004KT 25/11 A3005 RMK A01 T02540107  RH  041%=      5-min Rain = 0
KPPS 140910Z 28003KT 25/11 A3005 RMK A01 T02520107  RH  042%=      5-min Rain = 0
KPPS 140915Z 30004KT 25/11 A3005 RMK A01 T02490108  RH  043%=      5-min Rain = 0
KPPS 140920Z 30004KT 25/11 A3005 RMK A01 T02460108  RH  043%=      5-min Rain = 0
KPPS 140925Z 28005KT 25/11 A3005 RMK A01 T02450108  RH  044%=      5-min Rain = 0
KPPS 140930Z 28006KT 25/11 A3005 RMK A01 T02450108  RH  044%=      5-min Rain = 0
KPPS 140935Z 26006KT 24/11 A3005 RMK A01 T02430108  RH  044%=      5-min Rain = 0
KPPS 140940Z 25006KT 24/11 A3004 RMK A01 T02420108  RH  044%=      5-min Rain = 0
KPPS 140945Z 25006KT 24/11 A3004 RMK A01 T02420109  RH  045%=      5-min Rain = 0
KPPS 140950Z 26004KT 24/11 A3004 RMK A01 T02420110  RH  045%=      5-min Rain = 0
KPPS 140955Z 26003KT 24/11 A3004 RMK A01 T02410110  RH  045%=      5-min Rain = 0
KPPS 141000Z 26003KT 24/11 A3004 RMK A01 T02410110  RH  045%=      5-min Rain = 0
KPPS 141005Z 27003KT 24/11 A3005 RMK A01 T02430109  RH  045%=      5-min Rain = 0
KPPS 141010Z 27003KT 24/11 A3004 RMK A01 T02440110  RH  044%=      5-min Rain = 0
KPPS 141015Z 25005KT 24/11 A3004 RMK A01 T02440111  RH  045%=      5-min Rain = 0
KPPS 141020Z 24005KT 24/11 A3004 RMK A01 T02430110  RH  045%=      5-min Rain = 0
KPPS 141025Z 24005KT 24/11 A3004 RMK A01 T02430111  RH  045%=      5-min Rain = 0
KPPS 141030Z 25004KT 24/11 A3004 RMK A01 T02410112  RH  046%=      5-min Rain = 0
KPPS 141035Z 25003KT 24/11 A3004 RMK A01 T02390112  RH  047%=      5-min Rain = 0
KPPS 141040Z 24003KT 24/11 A3004 RMK A01 T02380112  RH  046%=      5-min Rain = 0
KPPS 141045Z 24003KT 24/11 A3004 RMK A01 T02400111  RH  046%=      5-min Rain = 0
KPPS 141050Z 24003KT 24/11 A3004 RMK A01 T02420111  RH  045%=      5-min Rain = 0
KPPS 141055Z 23003KT 24/11 A3004 RMK A01 T02440112  RH  045%=      5-min Rain = 0
KPPS 141100Z 23004KT 25/11 A3004 RMK A01 T02450111  RH  044%=      5-min Rain = 0
KPPS 141105Z 22003KT 25/11 A3004 RMK A01 T02470111  RH  044%=      5-min Rain = 0
KPPS 141110Z 21003KT 25/11 A3004 RMK A01 T02450112  RH  045%=      5-min Rain = 0
KPPS 141115Z 22003KT 25/11 A3004 RMK A01 T02460112  RH  044%=      5-min Rain = 0
KPPS 141120Z 22004KT 25/11 A3004 RMK A01 T02490112  RH  044%=      5-min Rain = 0
KPPS 141125Z 22004KT 25/11 A3004 RMK A01 T02480112  RH  044%=      5-min Rain = 0
KPPS 141130Z 22004KT 25/11 A3004 RMK A01 T02480113  RH  044%=      5-min Rain = 0
KPPS 141135Z 22004KT 25/11 A3004 RMK A01 T02460114  RH  045%=      5-min Rain = 0
KPPS 141140Z 23005KT 25/12 A3004 RMK A01 T02460115  RH  046%=      5-min Rain = 0
KPPS 141145Z 23005KT 24/12 A3004 RMK A01 T02430116  RH  047%=      5-min Rain = 0
KPPS 141150Z 23006KT 24/12 A3005 RMK A01 T02420118  RH  047%=      5-min Rain = 0
KPPS 141155Z 23005KT 24/12 A3005 RMK A01 T02420117  RH  047%=      5-min Rain = 0
KPPS 141200Z 23005KT 24/12 A3005 RMK A01 T02410118  RH  048%=      5-min Rain = 0
KPPS 141205Z 22004KT 24/12 A3005 RMK A01 T02400119  RH  048%=      5-min Rain = 0
KPPS 141210Z 22005KT 24/12 A3005 RMK A01 T02410119  RH  048%=      5-min Rain = 0
KPPS 141215Z 21005KT 24/12 A3005 RMK A01 T02430117  RH  047%=      5-min Rain = 0
KPPS 141220Z 23004KT 24/12 A3005 RMK A01 T02430120  RH  048%=      5-min Rain = 0
KPPS 141225Z 24005KT 24/12 A3005 RMK A01 T02400121  RH  049%=      5-min Rain = 0
KPPS 141230Z 25005KT 24/12 A3005 RMK A01 T02380121  RH  050%=      5-min Rain = 0
KPPS 141235Z 29007KT 24/12 A3006 RMK A01 T02410120  RH  048%=      5-min Rain = 0
KPPS 141240Z 25003KT 24/12 A3006 RMK A01 T02420119  RH  048%=      5-min Rain = 0
KPPS 141245Z 25005KT 25/12 A3006 RMK A01 T02460120  RH  047%=      5-min Rain = 0
KPPS 141250Z 25006KT 25/12 A3006 RMK A01 T02480122  RH  047%=      5-min Rain = 0
KPPS 141255Z 26004KT 25/12 A3006 RMK A01 T02470122  RH  047%=      5-min Rain = 0
KPPS 141300Z 15003KT 25/12 A3006 RMK A01 T02470122  RH  047%=      5-min Rain = 0
KPPS 141305Z 14003KT 25/12 A3007 RMK A01 T02460123  RH  048%=      5-min Rain = 0
KPPS 141310Z 14003KT 25/12 A3007 RMK A01 T02460123  RH  048%=      5-min Rain = 0
KPPS 141315Z 19003KT 25/12 A3007 RMK A01 T02460124  RH  048%=      5-min Rain = 0
KPPS 141320Z 21005KT 25/12 A3007 RMK A01 T02480124  RH  048%=      5-min Rain = 0
KPPS 141325Z 19003KT 25/13 A3007 RMK A01 T02490126  RH  048%=      5-min Rain = 0
KPPS 141330Z 21004KT 25/13 A3007 RMK A01 T02490128  RH  049%=      5-min Rain = 0
KPPS 141335Z 22004KT 25/13 A3007 RMK A01 T02480129  RH  049%=      5-min Rain = 0
KPPS 141340Z 20004KT 25/13 A3007 RMK A01 T02490129  RH  049%=      5-min Rain = 0
KPPS 141345Z 20003KT 25/13 A3007 RMK A01 T02500130  RH  049%=      5-min Rain = 0
KPPS 141350Z 24004KT 25/13 A3007 RMK A01 T02520132  RH  049%=      5-min Rain = 0
KPPS 141355Z 24004KT 25/13 A3007 RMK A01 T02530134  RH  049%=      5-min Rain = 0
KPPS 141400Z 24005KT 26/13 A3008 RMK A01 T02550134  RH  049%=      5-min Rain = 0
KPPS 141405Z 23003KT 26/13 A3008 RMK A01 T02580134  RH  048%=      5-min Rain = 0
KPPS 141410Z 20004G10KT 26/13 A3008 RMK A01 T02620133  RH  047%=      5-min Rain = 0
KPPS 141415Z 21007KT 27/13 A3008 RMK A01 T02690129  RH  044%=      5-min Rain = 0
KPPS 141420Z 21009KT 28/13 A3008 RMK A01 T02780129  RH  042%=      5-min Rain = 0
KPPS 141425Z 20009KT 28/12 A3007 RMK A01 T02840124  RH  039%=      5-min Rain = 0
KPPS 141430Z 20007G12KT 29/12 A3008 RMK A01 T02890120  RH  037%=      5-min Rain = 0
KPPS 141435Z 22007KT 29/12 A3008 RMK A01 T02870123  RH  038%=      5-min Rain = 0
KPPS 141440Z 28011G18KT 29/13 A3009 RMK A01 T02860128  RH  039%=      5-min Rain = 0
KPPS 141445Z 26010KT 28/12 A3009 RMK A01 T02840124  RH  039%=      5-min Rain = 0
KPPS 141450Z 29012KT 28/13 A3009 RMK A01 T02810129  RH  041%=      5-min Rain = 0
KPPS 141455Z 27011G16KT 28/12 A3009 RMK A01 T02810124  RH  039%=      5-min Rain = 0
KPPS 141500Z 28011G16KT 28/13 A3009 RMK A01 T02830127  RH  040%=      5-min Rain = 0
KPPS 141505Z 29011G16KT 28/13 A3009 RMK A01 T02780131  RH  042%=      5-min Rain = 0
KPPS 141510Z 26009KT 28/13 A301 RMK A01 T02800128  RH  040%=      5-min Rain = 0
KPPS 141515Z 26009KT 28/13 A301 RMK A01 T02810127  RH  040%=      5-min Rain = 0
KPPS 141520Z 27009KT 28/13 A301 RMK A01 T02830125  RH  039%=      5-min Rain = 0
KPPS 141525Z 26008KT 29/13 A3009 RMK A01 T02860125  RH  039%=      5-min Rain = 0
KPPS 141530Z 24007KT 29/13 A3009 RMK A01 T02850126  RH  039%=      5-min Rain = 0
KPPS 141535Z 26006KT 29/13 A3009 RMK A01 T02900125  RH  038%=      5-min Rain = 0
KPPS 141540Z 28005KT 30/12 A3009 RMK A01 T02980122  RH  035%=      5-min Rain = 0
KPPS 141545Z 25005KT 30/12 A3009 RMK A01 T02980123  RH  035%=      5-min Rain = 0
KPPS 141550Z 22004KT 30/12 A3009 RMK A01 T02990123  RH  035%=      5-min Rain = 0
KPPS 141555Z 23004KT 30/12 A3009 RMK A01 T03020120  RH  034%=      5-min Rain = 0
KPPS 141600Z 25003KT 30/12 A3009 RMK A01 T03030123  RH  034%=      5-min Rain = 0
KPPS 141605Z 25005KT 31/12 A3009 RMK A01 T03050122  RH  034%=      5-min Rain = 0
KPPS 141610Z 25005KT 31/12 A3009 RMK A01 T03080123  RH  033%=      5-min Rain = 0
KPPS 141615Z 23003KT 31/12 A3009 RMK A01 T03120124  RH  033%=      5-min Rain = 0
KPPS 141620Z 24004KT 31/12 A3009 RMK A01 T03140122  RH  032%=      5-min Rain = 0
KPPS 141625Z 24005KT 32/12 A3009 RMK A01 T03180123  RH  031%=      5-min Rain = 0
KPPS 141630Z 25004KT 32/12 A3009 RMK A01 T03210123  RH  031%=      5-min Rain = 0
KPPS 141635Z 25005KT 33/12 A3009 RMK A01 T03280120  RH  029%=      5-min Rain = 0
KPPS 141640Z 29007KT 33/12 A3009 RMK A01 T03340121  RH  028%=      5-min Rain = 0
KPPS 141645Z 29006KT 33/12 A3009 RMK A01 T03300121  RH  029%=      5-min Rain = 0
KPPS 141650Z 26007KT 33/11 A301 RMK A01 T03330106  RH  026%=      5-min Rain = 0
KPPS 141655Z 29007KT 33/11 A301 RMK A01 T03330111  RH  027%=      5-min Rain = 0
KPPS 141700Z 31006KT 33/12 A301 RMK A01 T03300119  RH  029%=      5-min Rain = 0
KPPS 141705Z 32006KT 33/12 A301 RMK A01 T03290120  RH  029%=      5-min Rain = 0
KPPS 141710Z 33007KT 33/13 A301 RMK A01 T03260128  RH  031%=      5-min Rain = 0
KPPS 141715Z 35006KT 32/13 A301 RMK A01 T03240128  RH  031%=      5-min Rain = 0
KPPS 141720Z 00004KT 33/13 A301 RMK A01 T03270126  RH  031%=      5-min Rain = 0
KPPS 141725Z 34003KT 33/12 A301 RMK A01 T03300123  RH  030%=      5-min Rain = 0
KPPS 141730Z 35002KT 33/13 A3009 RMK A01 T03340127  RH  030%=      5-min Rain = 0
KPPS 141735Z 29004KT 34/12 A3009 RMK A01 T03350124  RH  029%=      5-min Rain = 0
KPPS 141740Z 32004KT 34/12 A3009 RMK A01 T03350122  RH  029%=      5-min Rain = 0
KPPS 141745Z 28003KT 34/12 A3009 RMK A01 T03370115  RH  027%=      5-min Rain = 0
KPPS 141750Z 24005KT 34/10 A3009 RMK A01 T03410103  RH  024%=      5-min Rain = 0
KPPS 141755Z 23005KT 34/11 A3009 RMK A01 T03440108  RH  025%=      5-min Rain = 0
KPPS 141800Z 26004KT 35/11 A3008 RMK A01 T03490109  RH  024%=      5-min Rain = 0
KPPS 141805Z 26003KT 35/10 A3008 RMK A01 T03510104  RH  023%=      5-min Rain = 0
KPPS 141810Z 25005KT 36/10 A3008 RMK A01 T03550098  RH  022%=      5-min Rain = 0
KPPS 141815Z 24005KT 35/09 A3008 RMK A01 T03540092  RH  021%=      5-min Rain = 0
KPPS 141820Z 25005KT 36/09 A3008 RMK A01 T03550088  RH  020%=      5-min Rain = 0
KPPS 141825Z 24004KT 36/08 A3008 RMK A01 T03580084  RH  019%=      5-min Rain = 0
KPPS 141830Z 22005KT 36/09 A3007 RMK A01 T03590085  RH  019%=      5-min Rain = 0
KPPS 141835Z 22005KT 36/09 A3007 RMK A01 T03570085  RH  019%=      5-min Rain = 0
KPPS 141840Z 22004KT 36/09 A3007 RMK A01 T03560086  RH  020%=      5-min Rain = 0
KPPS 141845Z 22005KT 36/08 A3007 RMK A01 T03580081  RH  019%=      5-min Rain = 0
KPPS 141850Z 25008KT 36/08 A3007 RMK A01 T03620081  RH  018%=      5-min Rain = 0
KPPS 141855Z 24008KT 36/08 A3007 RMK A01 T03620077  RH  018%=      5-min Rain = 0
KPPS 141900Z 23008KT 36/08 A3007 RMK A01 T03600079  RH  018%=      5-min Rain = 0
KPPS 141905Z 24009KT 36/08 A3007 RMK A01 T03580081  RH  019%=      5-min Rain = 0
KPPS 141910Z 24012G20KT 36/08 A3007 RMK A01 T03580081  RH  019%=      5-min Rain = 0
KPPS 141915Z 25017KT 36/07 A3007 RMK A01 T03550071  RH  018%=      5-min Rain = 0
KPPS 141920Z 28019G24KT 35/08 A3007 RMK A01 T03530075  RH  019%=      5-min Rain = 0
KPPS 141925Z 29017G24KT 35/08 A3007 RMK A01 T03470076  RH  019%=      5-min Rain = 0
KPPS 141930Z 28015G20KT 35/07 A3007 RMK A01 T03480074  RH  019%=      5-min Rain = 0
KPPS 141935Z 26017G23KT 35/07 A3007 RMK A01 T03470074  RH  019%=      5-min Rain = 0
KPPS 141940Z 26016KT 34/08 A3007 RMK A01 T03440075  RH  020%=      5-min Rain = 0
KPPS 141945Z 27014G19KT 34/07 A3007 RMK A01 T03420074  RH  020%=      5-min Rain = 0
KPPS 141950Z 22012G18KT 34/08 A3007 RMK A01 T03410078  RH  020%=      5-min Rain = 0
KPPS 141955Z 22009G17KT 33/09 A3006 RMK A01 T03320085  RH  022%=      5-min Rain = 0
KPPS 142000Z 20007KT 33/09 A3006 RMK A01 T03340085  RH  022%=      5-min Rain = 0
KPPS 142005Z 20005G10KT 34/08 A3006 RMK A01 T03370079  RH  021%=      5-min Rain = 0
KPPS 142010Z 23005G12KT 34/08 A3006 RMK A01 T03390079  RH  021%=      5-min Rain = 0
KPPS 142015Z 25011G16KT 35/07 A3005 RMK A01 T03450069  RH  019%=      5-min Rain = 0
KPPS 142020Z 24011G19KT 35/07 A3004 RMK A01 T03490068  RH  018%=      5-min Rain = 0
KPPS 142025Z 18010KT 35/07 A3004 RMK A01 T03500071  RH  018%=      5-min Rain = 0
KPPS 142030Z 19009G14KT 35/07 A3003 RMK A01 T03520069  RH  018%=      5-min Rain = 0
KPPS 142035Z 21011KT 36/07 A3003 RMK A01 T03550071  RH  018%=      5-min Rain = 0
KPPS 142040Z 21010KT 36/07 A3002 RMK A01 T03610071  RH  017%=      5-min Rain = 0
KPPS 142045Z 21009G14KT 36/07 A3002 RMK A01 T03620069  RH  017%=      5-min Rain = 0
KPPS 142050Z 23008KT 36/07 A3002 RMK A01 T03620071  RH  017%=      5-min Rain = 0
KPPS 142055Z 23007KT 36/07 A3001 RMK A01 T03630071  RH  017%=      5-min Rain = 0
KPPS 142100Z 24008KT 37/07 A3001 RMK A01 T03690071  RH  017%=      5-min Rain = 0
KPPS 142105Z 23009KT 38/07 A30 RMK A01 T03760070  RH  016%=      5-min Rain = 0
KPPS 142110Z 23008KT 38/07 A30 RMK A01 T03770070  RH  016%=      5-min Rain = 0
KPPS 142115Z 26008KT 38/07 A30 RMK A01 T03820067  RH  015%=      5-min Rain = 0
KPPS 142120Z 26010G16KT 38/07 A30 RMK A01 T03830068  RH  015%=      5-min Rain = 0
KPPS 142125Z 26008KT 39/07 A2999 RMK A01 T03850067  RH  015%=      5-min Rain = 0
KPPS 142130Z 25006G11KT 38/07 A2999 RMK A01 T03830065  RH  015%=      5-min Rain = 0
KPPS 142135Z 27010G16KT 39/06 A2999 RMK A01 T03860061  RH  014%=      5-min Rain = 0
KPPS 142140Z 25012G18KT 39/06 A2999 RMK A01 T03900059  RH  014%=      5-min Rain = 0
KPPS 142145Z 25011KT 39/06 A2999 RMK A01 T03880060  RH  014%=      5-min Rain = 0
KPPS 142150Z 24013KT 39/06 A2999 RMK A01 T03870061  RH  014%=      5-min Rain = 0
KPPS 142155Z 25013KT 39/06 A2998 RMK A01 T03860060  RH  014%=      5-min Rain = 0
KPPS 142200Z 24011KT 39/06 A2998 RMK A01 T03870061  RH  014%=      5-min Rain = 0
KPPS 142205Z 24010G16KT 38/06 A2998 RMK A01 T03840061  RH  014%=      5-min Rain = 0
KPPS 142210Z 25009KT 39/06 A2998 RMK A01 T03880062  RH  014%=      5-min Rain = 0
KPPS 142215Z 23008G18KT 38/07 A2998 RMK A01 T03840065  RH  015%=      5-min Rain = 0
KPPS 142220Z 24009G18KT 38/06 A2998 RMK A01 T03840061  RH  014%=      5-min Rain = 0
KPPS 142225Z 26008KT 39/06 A2998 RMK A01 T03870064  RH  014%=      5-min Rain = 0
KPPS 142230Z 22008G17KT 38/07 A2998 RMK A01 T03840067  RH  015%=      5-min Rain = 0
KPPS 142235Z 22010G15KT 39/07 A2998 RMK A01 T03850067  RH  015%=      5-min Rain = 0
KPPS 142240Z 23008KT 38/07 A2998 RMK A01 T03830068  RH  015%=      5-min Rain = 0
KPPS 142245Z 22009KT 38/07 A2998 RMK A01 T03820067  RH  015%=      5-min Rain = 0
KPPS 142250Z 22009G14KT 38/07 A2998 RMK A01 T03820067  RH  015%=      5-min Rain = 0
KPPS 142255Z 23010G15KT 39/07 A2998 RMK A01 T03870068  RH  015%=      5-min Rain = 0
KPPS 142300Z 24009G14KT 38/07 A2998 RMK A01 T03840065  RH  015%=      5-min Rain = 0
KPPS 142305Z 26006G11KT 38/07 A2998 RMK A01 T03840066  RH  015%=      5-min Rain = 0
KPPS 142310Z 23007G13KT 39/07 A2998 RMK A01 T03860066  RH  015%=      5-min Rain = 0
KPPS 142315Z 20008KT 38/07 A2998 RMK A01 T03820067  RH  015%=      5-min Rain = 0
KPPS 142320Z 20010KT 38/07 A2998 RMK A01 T03820067  RH  015%=      5-min Rain = 0
KPPS 142325Z 21008G13KT 38/07 A2998 RMK A01 T03820069  RH  015%=      5-min Rain = 0
KPPS 142330Z 20008G13KT 38/07 A2998 RMK A01 T03830069  RH  015%=      5-min Rain = 0
KPPS 142335Z 21009KT 38/07 A2998 RMK A01 T03830068  RH  015%=      5-min Rain = 0
KPPS 142340Z 23007G12KT 38/07 A2998 RMK A01 T03830067  RH  015%=      5-min Rain = 0
KPPS 142345Z 22010KT 38/07 A2997 RMK A01 T03820068  RH  015%=      5-min Rain = 0
KPPS 142350Z 22009KT 38/07 A2997 RMK A01 T03790067  RH  015%=      5-min Rain = 0
KPPS 142355Z 20008KT 38/07 A2997 RMK A01 T03760067  RH  015%=      5-min Rain = 0
KPPS 150000Z 22009KT 38/07 A2997 RMK A01 T03750066  RH  016%=      5-min Rain = 0
KPPS 150005Z 21007KT 37/07 A2997 RMK A01 T03720066  RH  016%=      5-min Rain = 0
KPPS 150010Z 22006KT 37/07 A2998 RMK A01 T03710067  RH  016%=      5-min Rain = 0
KPPS 150015Z 21006KT 38/07 A2998 RMK A01 T03750067  RH  016%=      5-min Rain = 0
KPPS 150020Z 22007KT 38/07 A2998 RMK A01 T03760066  RH  015%=      5-min Rain = 0
KPPS 150025Z 21006KT 38/07 A2998 RMK A01 T03750066  RH  016%=      5-min Rain = 0
KPPS 150030Z 20006KT 38/07 A2998 RMK A01 T03750067  RH  016%=      5-min Rain = 0
KPPS 150035Z 21006KT 37/07 A2998 RMK A01 T03730067  RH  016%=      5-min Rain = 0
KPPS 150040Z 20005KT 37/07 A2998 RMK A01 T03710066  RH  016%=      5-min Rain = 0
KPPS 150045Z 20006KT 37/07 A2998 RMK A01 T03690066  RH  016%=      5-min Rain = 0
KPPS 150050Z 20007KT 37/07 A2999 RMK A01 T03660070  RH  017%=      5-min Rain = 0
KPPS 150055Z 19006KT 36/07 A2999 RMK A01 T03610071  RH  017%=      5-min Rain = 0
KPPS 150100Z 19006KT 36/07 A2999 RMK A01 T03560070  RH  018%=      5-min Rain = 0
KPPS 150105Z 19005KT 35/07 A2999 RMK A01 T03510071  RH  018%=      5-min Rain = 0
KPPS 150110Z 19006KT 35/07 A2999 RMK A01 T03450071  RH  019%=      5-min Rain = 0
KPPS 150115Z 18006KT 34/07 A30 RMK A01 T03410072  RH  019%=      5-min Rain = 0
KPPS 150120Z 19006KT 34/07 A30 RMK A01 T03380073  RH  020%=      5-min Rain = 0
KPPS 150125Z 19006KT 34/07 A30 RMK A01 T03370072  RH  020%=      5-min Rain = 0
KPPS 150130Z 19006KT 34/07 A30 RMK A01 T03400072  RH  020%=      5-min Rain = 0
KPPS 150135Z 20006KT 34/07 A30 RMK A01 T03400073  RH  020%=      5-min Rain = 0
KPPS 150140Z 21006KT 34/07 A30 RMK A01 T03380074  RH  020%=      5-min Rain = 0
KPPS 150145Z 32012G34KT 33/08 A3003 RMK A01 T03280082  RH  023%=      5-min Rain = 0
KPPS 150150Z 35027G40KT 29/12 A3004 RMK A01 T02880120  RH  037%=      5-min Rain = 0
KPPS 150155Z 36039G52KT 28/12 A3004 RMK A01 T02800116  RH  037%=      5-min Rain = 0
KPPS 150200Z 00036G48KT 28/11 A3005 RMK A01 T02820109  RH  035%=      5-min Rain = 0
KPPS 150205Z 01037G51KT 29/10 A3005 RMK A01 T02860104  RH  033%=      5-min Rain = 0
KPPS 150210Z 01037G46KT 29/10 A3006 RMK A01 T02880102  RH  033%=      5-min Rain = 0
KPPS 150215Z 01031G40KT 29/10 A3006 RMK A01 T02870104  RH  033%=      5-min Rain = 0
KPPS 150220Z 01026G36KT 28/11 A3007 RMK A01 T02840107  RH  034%=      5-min Rain = 0
KPPS 150225Z 02026G36KT 28/11 A3007 RMK A01 T02800109  RH  036%=      5-min Rain = 0
KPPS 150230Z 02022G32KT 28/11 A3007 RMK A01 T02770111  RH  037%=      5-min Rain = 0
KPPS 150235Z 02023G33KT 27/11 A3007 RMK A01 T02730114  RH  038%=      5-min Rain = 0
KPPS 150240Z 03021G29KT 27/12 A3007 RMK A01 T02710116  RH  040%=      5-min Rain = 0
KPPS 150245Z 03021G29KT 27/12 A3008 RMK A01 T02710116  RH  039%=      5-min Rain = 0
KPPS 150250Z 03019G27KT 27/11 A3008 RMK A01 T02730113  RH  038%=      5-min Rain = 0
KPPS 150255Z 03017G25KT 28/11 A3008 RMK A01 T02750111  RH  037%=      5-min Rain = 0
KPPS 150300Z 03018G25KT 28/11 A3008 RMK A01 T02760109  RH  037%=      5-min Rain = 0
KPPS 150305Z 03016G23KT 28/11 A3008 RMK A01 T02770108  RH  036%=      5-min Rain = 0
KPPS 150310Z 04017G25KT 28/11 A3008 RMK A01 T02780107  RH  036%=      5-min Rain = 0
KPPS 150315Z 04017G24KT 28/11 A3008 RMK A01 T02800106  RH  035%=      5-min Rain = 0
KPPS 150320Z 04016G25KT 28/11 A3008 RMK A01 T02790107  RH  035%=      5-min Rain = 0
KPPS 150325Z 04017G24KT 28/11 A3008 RMK A01 T02780107  RH  036%=      5-min Rain = 0
KPPS 150330Z 04019G25KT 28/11 A3008 RMK A01 T02770108  RH  036%=      5-min Rain = 0
KPPS 150335Z 05019G26KT 28/11 A3008 RMK A01 T02750109  RH  037%=      5-min Rain = 0
KPPS 150340Z 05019G24KT 27/11 A3008 RMK A01 T02740109  RH  037%=      5-min Rain = 0
KPPS 150345Z 05019G25KT 27/11 A3008 RMK A01 T02730110  RH  038%=      5-min Rain = 0
KPPS 150350Z 05018KT 27/11 A3008 RMK A01 T02710113  RH  039%=      5-min Rain = 0
KPPS 150355Z 05016G21KT 27/11 A3008 RMK A01 T02710113  RH  039%=      5-min Rain = 0
KPPS 150400Z 05017KT 27/11 A3008 RMK A01 T02710112  RH  039%=      5-min Rain = 0
KPPS 150405Z 05016G24KT 27/11 A3008 RMK A01 T02700114  RH  039%=      5-min Rain = 0
KPPS 150410Z 06018G24KT 27/12 A3008 RMK A01 T02700115  RH  039%=      5-min Rain = 0
KPPS 150415Z 06017KT 27/12 A3008 RMK A01 T02690115  RH  040%=      5-min Rain = 0
KPPS 150420Z 06016G21KT 27/11 A3007 RMK A01 T02690114  RH  040%=      5-min Rain = 0
KPPS 150425Z 07017KT 27/11 A3007 RMK A01 T02700114  RH  039%=      5-min Rain = 0
KPPS 150430Z 07016KT 27/12 A3007 RMK A01 T02690115  RH  040%=      5-min Rain = 0
KPPS 150435Z 07016KT 27/12 A3007 RMK A01 T02690115  RH  040%=      5-min Rain = 0
KPPS 150440Z 07014KT 27/12 A3007 RMK A01 T02690115  RH  040%=      5-min Rain = 0
KPPS 150445Z 08014G19KT 27/12 A3007 RMK A01 T02690115  RH  040%=      5-min Rain = 0
KPPS 150450Z 07014KT 27/11 A3007 RMK A01 T02690114  RH  039%=      5-min Rain = 0
KPPS 150455Z 08014KT 27/11 A3007 RMK A01 T02710112  RH  038%=      5-min Rain = 0

Page generated in 0.0101 seconds.